Time;durP1;ratioP1;P1;durP2;ratioP2;P2;SDS_P1;SDS_P2;PMS_P1;PMS_P2;Temp;Humidity;BMP_temperature;BMP_pressure;BME280_temperature;BME280_humidity;BME280_pressure;Samples;Min_cycle;Max_cycle;Signal;HPM_P1;HPM_P2
2023/07/13 00:00:36;;;;;;;9.65;4.18;;;25.80;85.40;;;;;;7404562;19;20653;-72
2023/07/13 00:03:02;;;;;;;7.75;4.10;;;25.80;85.50;;;;;;7403589;19;20038;-72
2023/07/13 00:05:28;;;;;;;9.85;4.13;;;25.80;85.80;;;;;;7354864;19;19922;-72
2023/07/13 00:07:54;;;;;;;8.27;3.95;;;25.90;85.60;;;;;;7405042;19;19952;-72
2023/07/13 00:10:21;;;;;;;9.98;4.07;;;25.70;85.80;;;;;;7400697;19;20025;-72
2023/07/13 00:12:47;;;;;;;9.23;4.10;;;25.60;86.20;;;;;;7401924;19;19915;-72
2023/07/13 00:15:22;;;;;;;11.73;4.18;;;25.60;86.60;;;;;;7401003;19;19983;-72
2023/07/13 00:17:53;;;;;;;11.38;4.65;;;25.60;86.70;;;;;;7398453;19;19919;-72
2023/07/13 00:20:21;;;;;;;9.35;4.07;;;25.60;86.70;;;;;;7400263;19;19954;-71
2023/07/13 00:22:48;;;;;;;10.13;4.32;;;25.60;87.10;;;;;;7401246;19;19935;-72
2023/07/13 00:25:14;;;;;;;12.23;4.68;;;25.60;87.30;;;;;;7402655;19;20604;-71
2023/07/13 00:27:41;;;;;;;12.85;4.65;;;25.50;87.40;;;;;;7403657;19;19923;-72
2023/07/13 00:30:08;;;;;;;11.57;4.20;;;25.60;87.50;;;;;;7402481;19;20373;-72
2023/07/13 00:32:35;;;;;;;8.82;3.92;;;25.60;87.50;;;;;;7402302;19;19930;-72
2023/07/13 00:35:03;;;;;;;11.98;5.25;;;25.60;87.60;;;;;;7403956;19;19998;-71
2023/07/13 00:37:29;;;;;;;12.43;4.40;;;25.50;87.70;;;;;;7400987;19;19929;-72
2023/07/13 00:39:54;;;;;;;12.05;4.10;;;25.50;88.10;;;;;;7404746;19;19923;-72
2023/07/13 00:42:20;;;;;;;9.43;4.00;;;25.50;88.40;;;;;;7401619;19;19926;-72
2023/07/13 00:45:04;;;;;;;14.43;4.50;;;25.40;88.80;;;;;;7399620;19;19911;-72
2023/07/13 00:47:30;;;;;;;10.25;4.35;;;25.40;89.10;;;;;;7401740;19;19921;-72
2023/07/13 00:49:56;;;;;;;9.38;4.22;;;25.40;89.40;;;;;;7403549;19;19978;-72
2023/07/13 00:52:22;;;;;;;13.10;4.70;;;25.50;89.40;;;;;;7402665;19;19915;-72
2023/07/13 00:54:48;;;;;;;10.88;5.22;;;25.50;89.50;;;;;;7404491;19;20616;-72
2023/07/13 00:57:18;;;;;;;9.65;4.47;;;25.50;89.70;;;;;;7400224;19;19925;-72
2023/07/13 00:59:55;;;;;;;11.60;4.35;;;25.40;89.80;;;;;;7400745;19;19923;-72
2023/07/13 01:02:22;;;;;;;9.38;5.18;;;25.40;90.20;;;;;;7401813;19;20309;-73
2023/07/13 01:04:47;;;;;;;11.70;4.20;;;25.30;90.30;;;;;;7401978;19;19977;-72
2023/07/13 01:07:14;;;;;;;10.25;5.15;;;25.40;90.40;;;;;;7400909;19;20367;-72
2023/07/13 01:09:40;;;;;;;8.18;3.45;;;25.30;90.50;;;;;;7403299;19;19918;-73
2023/07/13 01:12:06;;;;;;;8.90;3.85;;;25.40;90.50;;;;;;7399956;19;19935;-73
2023/07/13 01:14:32;;;;;;;11.98;4.63;;;25.40;90.50;;;;;;7402288;19;20787;-71
2023/07/13 01:17:00;;;;;;;16.10;4.63;;;25.30;90.50;;;;;;7400135;19;19922;-73
2023/07/13 01:19:42;;;;;;;10.30;4.95;;;25.30;90.70;;;;;;7399892;19;19919;-72
2023/07/13 01:22:11;;;;;;;12.45;5.20;;;25.30;90.80;;;;;;7398938;19;19996;-73
2023/07/13 01:24:42;;;;;;;14.82;5.03;;;25.30;90.90;;;;;;7400281;19;20263;-72
2023/07/13 01:27:09;;;;;;;11.32;4.35;;;25.30;91.00;;;;;;7398922;19;19925;-72
2023/07/13 01:29:41;;;;;;;13.15;5.05;;;25.30;91.10;;;;;;7403197;19;19922;-73
2023/07/13 01:32:09;;;;;;;15.32;4.78;;;25.30;91.30;;;;;;7399567;19;20000;-72
2023/07/13 01:34:36;;;;;;;13.23;4.53;;;25.40;91.50;;;;;;7401327;19;19915;-73
2023/07/13 01:37:04;;;;;;;14.25;4.43;;;25.30;92.90;;;;;;7401268;19;20334;-72
2023/07/13 01:39:31;;;;;;;10.75;4.32;;;25.30;93.20;;;;;;7402320;19;19918;-72
2023/07/13 01:41:57;;;;;;;11.43;4.70;;;25.30;93.30;;;;;;7399158;19;20323;-71
2023/07/13 01:44:23;;;;;;;14.38;4.53;;;25.20;93.70;;;;;;7399315;19;19939;-72
2023/07/13 01:46:50;;;;;;;13.55;4.63;;;25.20;94.10;;;;;;7400497;19;19926;-72
2023/07/13 01:49:16;;;;;;;12.77;4.90;;;25.30;94.20;;;;;;7401967;19;19922;-72
2023/07/13 01:51:42;;;;;;;14.10;5.10;;;25.30;94.00;;;;;;7401548;19;19939;-73
2023/07/13 01:54:07;;;;;;;14.63;4.80;;;25.20;93.50;;;;;;7349806;19;19926;-72
2023/07/13 01:56:34;;;;;;;11.05;4.70;;;25.10;93.30;;;;;;7400978;19;20031;-73
2023/07/13 01:59:00;;;;;;;10.27;4.85;;;25.10;93.40;;;;;;7401519;19;19922;-73
2023/07/13 02:01:26;;;;;;;10.88;4.82;;;25.10;93.40;;;;;;7398855;19;19915;-72
2023/07/13 02:03:53;;;;;;;10.48;5.30;;;25.00;93.40;;;;;;7399865;19;20297;-72
2023/07/13 02:06:19;;;;;;;13.93;5.15;;;25.10;93.50;;;;;;7397069;19;20327;-73
2023/07/13 02:08:44;;;;;;;13.82;5.15;;;25.00;94.50;;;;;;7401362;19;19921;-73
2023/07/13 02:11:10;;;;;;;15.40;5.32;;;25.00;94.90;;;;;;7399717;19;19959;-73
2023/07/13 02:13:36;;;;;;;16.27;5.75;;;25.00;94.90;;;;;;7401077;19;19922;-73
2023/07/13 02:16:02;;;;;;;8.80;4.65;;;25.00;95.30;;;;;;7398931;19;19919;-73
2023/07/13 02:18:28;;;;;;;11.63;5.90;;;24.90;95.10;;;;;;7400161;19;19959;-73
2023/07/13 02:20:54;;;;;;;10.20;5.20;;;24.80;95.30;;;;;;7400470;19;19926;-73
2023/07/13 02:23:19;;;;;;;10.82;5.03;;;24.80;95.30;;;;;;7398661;19;20268;-72
2023/07/13 02:25:45;;;;;;;11.93;5.57;;;24.90;95.40;;;;;;7397328;19;19942;-73
2023/07/13 02:28:11;;;;;;;13.13;5.10;;;24.90;95.80;;;;;;7397464;19;19926;-73
2023/07/13 02:30:38;;;;;;;14.25;6.35;;;24.90;96.40;;;;;;7398485;19;20303;-73
2023/07/13 02:33:04;;;;;;;12.90;4.95;;;24.80;96.50;;;;;;7397509;19;19948;-73
2023/07/13 02:35:30;;;;;;;11.07;5.25;;;24.80;96.70;;;;;;7397937;19;19922;-73
2023/07/13 02:37:56;;;;;;;14.80;5.70;;;24.80;96.90;;;;;;7399535;19;19914;-73
2023/07/13 02:40:23;;;;;;;11.70;5.70;;;24.80;97.00;;;;;;7399004;19;19946;-74
2023/07/13 02:42:48;;;;;;;10.50;5.05;;;24.80;97.30;;;;;;7399287;19;19933;-73
2023/07/13 02:45:14;;;;;;;14.63;5.78;;;24.70;97.40;;;;;;7398735;19;20335;-73
2023/07/13 02:47:41;;;;;;;13.75;5.60;;;24.70;97.60;;;;;;7398394;19;19919;-73
2023/07/13 02:50:07;;;;;;;12.45;5.63;;;24.70;97.80;;;;;;7395923;19;19994;-72
2023/07/13 02:52:33;;;;;;;13.18;6.38;;;24.60;97.80;;;;;;7400146;19;20285;-72
2023/07/13 02:54:59;;;;;;;16.80;5.95;;;24.60;98.10;;;;;;7399719;19;19922;-72
2023/07/13 02:57:25;;;;;;;13.82;5.22;;;24.50;98.50;;;;;;7397230;19;19919;-73
2023/07/13 02:59:50;;;;;;;12.07;5.63;;;24.60;98.80;;;;;;7398422;19;19907;-73
2023/07/13 03:02:16;;;;;;;17.30;6.07;;;24.50;98.90;;;;;;7398547;19;19946;-73
2023/07/13 03:04:42;;;;;;;14.15;5.68;;;24.50;99.30;;;;;;7396514;19;19919;-73
2023/07/13 03:07:08;;;;;;;11.43;4.97;;;24.50;99.80;;;;;;7398128;19;20343;-72
2023/07/13 03:09:34;;;;;;;17.92;5.88;;;24.50;99.90;;;;;;7404311;19;19914;-72
2023/07/13 03:12:01;;;;;;;16.13;6.82;;;24.50;99.90;;;;;;7406235;19;20466;-74
2023/07/13 03:14:27;;;;;;;17.42;6.75;;;24.40;99.90;;;;;;7354928;19;19947;-73
2023/07/13 03:16:52;;;;;;;15.43;5.80;;;24.40;99.90;;;;;;7406245;19;19919;-73
2023/07/13 03:19:19;;;;;;;15.45;5.95;;;24.40;99.90;;;;;;7405357;19;19982;-72
2023/07/13 03:21:45;;;;;;;13.82;5.68;;;24.40;99.90;;;;;;7402337;19;19933;-72
2023/07/13 03:24:11;;;;;;;12.45;5.63;;;24.40;99.90;;;;;;7403571;19;19978;-74
2023/07/13 03:26:38;;;;;;;15.38;6.00;;;24.50;99.90;;;;;;7405149;19;19935;-74
2023/07/13 03:29:03;;;;;;;13.02;5.90;;;24.50;99.90;;;;;;7404927;19;19922;-73
2023/07/13 03:31:33;;;;;;;13.52;5.65;;;24.50;99.90;;;;;;7406587;19;19917;-73
2023/07/13 03:33:58;;;;;;;14.90;6.38;;;24.50;99.90;;;;;;7407292;19;19944;-74
2023/07/13 03:36:27;;;;;;;15.50;6.22;;;24.50;99.90;;;;;;7402058;19;19915;-74
2023/07/13 03:38:55;;;;;;;14.68;5.75;;;24.50;99.90;;;;;;7403588;19;19935;-74
2023/07/13 03:41:23;;;;;;;12.13;5.45;;;24.50;99.90;;;;;;7403538;19;19911;-74
2023/07/13 03:43:49;;;;;;;12.65;6.05;;;24.50;99.90;;;;;;7405050;19;20343;-74
2023/07/13 03:46:15;;;;;;;;;;;24.50;99.90;;;;;;7406312;19;19939;-73
2023/07/13 03:48:44;;;;;;;14.77;5.97;;;24.50;99.90;;;;;;7404185;19;19915;-73
2023/07/13 03:51:10;;;;;;;18.65;5.88;;;24.50;99.90;;;;;;7403131;19;19919;-72
2023/07/13 03:53:40;;;;;;;;;;;24.50;99.90;;;;;;7406738;19;19914;-72
2023/07/13 03:56:06;;;;;;;15.27;6.07;;;24.50;99.90;;;;;;7403104;19;20399;-72
2023/07/13 03:58:35;;;;;;;16.15;6.38;;;24.50;99.90;;;;;;7356169;19;20280;-71
2023/07/13 04:01:03;;;;;;;15.45;6.35;;;24.50;99.90;;;;;;7404841;19;19910;-72
2023/07/13 04:03:29;;;;;;;11.70;5.85;;;24.50;99.90;;;;;;7401584;19;19918;-72
2023/07/13 04:05:59;;;;;;;18.65;6.03;;;24.50;99.90;;;;;;7402683;19;19970;-72
2023/07/13 04:08:29;;;;;;;15.65;6.03;;;24.50;99.90;;;;;;7403145;19;19978;-72
2023/07/13 04:10:56;;;;;;;16.13;6.03;;;24.50;99.90;;;;;;7352872;19;19943;-72
2023/07/13 04:13:22;;;;;;;;;;;24.50;99.90;;;;;;7406131;19;19931;-72
2023/07/13 04:15:48;;;;;;;14.70;5.75;;;24.50;99.90;;;;;;7405675;19;19914;-71
2023/07/13 04:18:14;;;;;;;11.98;5.53;;;24.40;99.90;;;;;;7400592;19;19914;-72
2023/07/13 04:20:40;;;;;;;13.55;7.60;;;24.50;99.90;;;;;;7399126;19;20550;-72
2023/07/13 04:23:05;;;;;;;12.57;5.78;;;24.50;99.90;;;;;;7398692;19;19919;-72
2023/07/13 04:25:31;;;;;;;15.07;5.90;;;24.40;99.90;;;;;;7402734;19;20621;-72
2023/07/13 04:27:57;;;;;;;13.63;5.65;;;24.40;99.90;;;;;;7403954;19;19915;-71
2023/07/13 04:30:24;;;;;;;15.35;6.47;;;24.40;99.90;;;;;;7399953;19;19934;-71
2023/07/13 04:32:52;;;;;;;;;;;24.50;99.90;;;;;;7405865;19;20288;-75
2023/07/13 04:35:21;;;;;;;13.85;5.40;;;24.50;99.90;;;;;;7402441;19;20351;-72
2023/07/13 04:37:50;;;;;;;15.13;6.65;;;24.50;99.90;;;;;;7403940;19;19926;-72
2023/07/13 04:40:20;;;;;;;13.23;5.97;;;24.50;99.90;;;;;;7401603;19;19922;-72
2023/07/13 04:42:46;;;;;;;12.40;5.80;;;24.50;99.90;;;;;;7403411;19;19925;-72
2023/07/13 04:45:14;;;;;;;15.95;5.95;;;24.50;99.90;;;;;;7402117;19;19921;-72
2023/07/13 04:47:40;;;;;;;14.48;5.93;;;24.50;99.90;;;;;;7382783;19;19943;-72
2023/07/13 04:50:07;;;;;;;18.73;6.82;;;24.50;99.90;;;;;;7400703;19;20265;-72
2023/07/13 04:52:33;;;;;;;11.68;4.93;;;24.50;99.90;;;;;;7401374;19;19939;-72
2023/07/13 04:55:00;;;;;;;18.33;7.15;;;24.50;99.90;;;;;;7360417;19;20631;-72
2023/07/13 04:57:26;;;;;;;15.70;5.80;;;24.50;99.90;;;;;;7401653;19;20403;-72
2023/07/13 04:59:52;;;;;;;15.50;5.88;;;24.60;99.90;;;;;;7401164;19;19922;-71
2023/07/13 05:02:20;;;;;;;15.13;5.50;;;24.60;99.90;;;;;;7400924;19;19917;-72
2023/07/13 05:04:49;;;;;;;11.73;6.03;;;24.60;99.90;;;;;;7404588;19;19907;-72
2023/07/13 05:07:15;;;;;;;11.55;5.47;;;24.70;99.90;;;;;;7401354;19;19939;-72
2023/07/13 05:09:41;;;;;;;;;;;24.70;99.90;;;;;;7404639;19;19926;-72
2023/07/13 05:12:08;;;;;;;13.45;5.38;;;24.70;99.90;;;;;;7398848;19;19918;-72
2023/07/13 05:14:34;;;;;;;12.98;5.18;;;24.80;99.90;;;;;;7402266;19;19915;-72
2023/07/13 05:17:00;;;;;;;14.27;5.28;;;24.80;99.90;;;;;;7400660;19;19919;-71
2023/07/13 05:19:26;;;;;;;12.65;5.45;;;24.80;99.90;;;;;;7402430;19;19913;-72
2023/07/13 05:21:52;;;;;;;11.25;5.53;;;24.90;99.90;;;;;;7400969;19;19918;-72
2023/07/13 05:24:18;;;;;;;13.25;5.88;;;25.00;99.90;;;;;;7400618;19;19915;-72
2023/07/13 05:26:44;;;;;;;11.48;5.43;;;25.00;99.90;;;;;;7399360;19;19926;-71
2023/07/13 05:29:10;;;;;;;17.20;6.57;;;25.00;99.90;;;;;;7400239;19;19918;-72
2023/07/13 05:31:37;;;;;;;13.45;5.53;;;25.00;99.90;;;;;;7400496;19;19915;-72
2023/07/13 05:34:03;;;;;;;16.25;6.07;;;25.00;99.90;;;;;;7398693;19;19939;-72
2023/07/13 05:36:28;;;;;;;12.23;6.72;;;25.00;99.90;;;;;;7402041;19;19926;-71
2023/07/13 05:38:54;;;;;;;12.95;5.57;;;25.10;99.90;;;;;;7397447;19;19921;-72
2023/07/13 05:41:20;;;;;;;13.57;6.25;;;25.20;99.60;;;;;;7399648;19;20437;-72
2023/07/13 05:43:46;;;;;;;16.95;6.68;;;25.30;99.30;;;;;;7398756;19;20362;-72
2023/07/13 05:46:11;;;;;;;13.90;5.75;;;25.40;98.90;;;;;;7400009;19;19918;-72
2023/07/13 05:48:38;;;;;;;11.93;5.95;;;25.40;98.70;;;;;;7401641;19;19911;-71
2023/07/13 05:51:04;;;;;;;18.45;8.05;;;25.50;98.00;;;;;;7400590;19;20259;-73
2023/07/13 05:53:29;;;;;;;15.07;6.22;;;25.50;97.60;;;;;;7398464;19;19922;-73
2023/07/13 05:55:56;;;;;;;12.85;5.85;;;25.50;97.60;;;;;;7379684;19;19923;-72
2023/07/13 05:58:22;;;;;;;12.52;5.57;;;25.60;97.10;;;;;;7397830;19;19950;-72
2023/07/13 06:00:48;;;;;;;13.52;5.63;;;25.60;96.70;;;;;;7399924;19;20031;-71
2023/07/13 06:03:14;;;;;;;;;;;25.70;96.70;;;;;;7401644;19;19918;-71
2023/07/13 06:05:40;;;;;;;14.35;5.72;;;25.80;96.40;;;;;;7401352;19;20328;-72
2023/07/13 06:08:07;;;;;;;;;;;25.60;96.80;;;;;;7398471;19;20340;-73
2023/07/13 06:10:34;;;;;;;13.02;6.03;;;25.70;97.10;;;;;;7402599;19;19918;-72
2023/07/13 06:13:00;;;;;;;63.05;35.58;;;25.70;97.10;;;;;;7401490;19;19915;-72
2023/07/13 06:15:26;;;;;;;11.23;5.35;;;25.60;97.10;;;;;;7399156;19;20375;-72
2023/07/13 06:17:52;;;;;;;12.23;5.47;;;25.70;97.00;;;;;;7397669;19;19919;-73
2023/07/13 06:20:18;;;;;;;13.48;5.80;;;25.80;96.60;;;;;;7398560;19;19958;-73
2023/07/13 06:22:43;;;;;;;12.05;5.32;;;25.90;95.80;;;;;;7401420;19;19914;-71
2023/07/13 06:25:09;;;;;;;13.52;5.50;;;26.10;95.30;;;;;;7399272;19;20005;-72
2023/07/13 06:27:35;;;;;;;12.88;5.65;;;25.90;95.10;;;;;;7399359;19;19922;-72
2023/07/13 06:30:01;;;;;;;12.88;5.78;;;26.00;95.40;;;;;;7399160;19;19918;-71
2023/07/13 06:32:27;;;;;;;;;;;26.00;95.20;;;;;;7378534;19;20371;-72
2023/07/13 06:34:53;;;;;;;12.00;6.50;;;25.90;95.40;;;;;;7401114;19;19925;-72
2023/07/13 06:37:18;;;;;;;15.18;7.15;;;26.00;95.40;;;;;;7395626;19;19934;-73
2023/07/13 06:39:44;;;;;;;19.13;7.00;;;25.80;95.90;;;;;;7399936;19;19919;-73
2023/07/13 06:42:11;;;;;;;15.80;8.63;;;25.90;95.60;;;;;;7393840;19;20259;-72
2023/07/13 06:44:36;;;;;;;14.50;7.20;;;26.00;95.40;;;;;;7400314;19;20275;-73
2023/07/13 06:47:03;;;;;;;13.60;6.72;;;26.00;95.20;;;;;;7396474;19;19946;-72
2023/07/13 06:49:28;;;;;;;15.07;7.13;;;26.10;94.90;;;;;;7400144;19;19920;-73
2023/07/13 06:51:54;;;;;;;17.33;6.63;;;26.10;94.50;;;;;;7397764;19;20344;-72
2023/07/13 06:54:20;;;;;;;13.80;6.38;;;26.30;94.10;;;;;;7396710;19;20359;-72
2023/07/13 06:56:47;;;;;;;15.77;6.72;;;26.50;93.40;;;;;;7397633;19;19911;-72
2023/07/13 06:59:13;;;;;;;14.23;6.55;;;26.60;93.40;;;;;;7398082;19;19929;-71
2023/07/13 07:01:38;;;;;;;12.18;5.78;;;26.50;92.90;;;;;;7395034;19;19915;-71
2023/07/13 07:04:04;;;;;;;17.30;7.68;;;26.60;92.30;;;;;;7394960;19;20263;-72
2023/07/13 07:06:30;;;;;;;18.50;7.00;;;26.60;92.30;;;;;;7396830;19;19922;-72
2023/07/13 07:08:56;;;;;;;15.85;6.50;;;26.70;92.30;;;;;;7398886;19;19921;-72
2023/07/13 07:11:24;;;;;;;13.15;6.30;;;26.60;92.20;;;;;;7397450;19;20430;-72
2023/07/13 07:13:51;;;;;;;14.20;5.72;;;26.70;91.90;;;;;;7391901;19;19915;-72
2023/07/13 07:16:18;;;;;;;10.80;6.13;;;26.80;91.60;;;;;;7393764;19;19915;-74
2023/07/13 07:18:45;;;;;;;15.15;7.85;;;26.80;91.60;;;;;;7395759;19;20265;-72
2023/07/13 07:21:11;;;;;;;12.07;6.03;;;26.70;91.70;;;;;;7396327;19;19993;-72
2023/07/13 07:23:36;;;;;;;15.00;6.20;;;26.90;91.60;;;;;;7397171;19;20319;-73
2023/07/13 07:26:04;;;;;;;15.00;6.75;;;26.90;91.10;;;;;;7398249;19;19911;-73
2023/07/13 07:28:34;;;;;;;20.23;6.30;;;27.00;91.00;;;;;;7397439;19;19919;-74
2023/07/13 07:31:00;;;;;;;16.45;7.05;;;26.80;91.20;;;;;;7357191;19;19923;-73
2023/07/13 07:33:26;;;;;;;17.05;7.55;;;26.70;91.70;;;;;;7390615;19;19914;-74
2023/07/13 07:35:53;;;;;;;14.80;6.95;;;26.70;91.40;;;;;;7396380;19;19927;-73
2023/07/13 07:38:19;;;;;;;12.10;6.78;;;26.90;90.90;;;;;;7397388;19;20338;-73
2023/07/13 07:40:46;;;;;;;17.85;7.05;;;27.10;90.90;;;;;;7397547;19;19918;-74
2023/07/13 07:43:13;;;;;;;13.32;6.78;;;27.30;90.00;;;;;;7389454;19;20384;-74
2023/07/13 07:45:40;;;;;;;11.95;7.40;;;27.10;89.80;;;;;;7373217;19;19918;-74
2023/07/13 07:48:06;;;;;;;12.35;6.32;;;27.40;89.70;;;;;;7354133;19;20030;-74
2023/07/13 07:50:32;;;;;;;13.38;5.93;;;27.70;88.50;;;;;;7382013;19;19942;-73
2023/07/13 07:52:58;;;;;;;14.10;5.82;;;28.00;86.90;;;;;;7392849;19;20280;-73
2023/07/13 07:55:28;;;;;;;14.45;6.28;;;28.10;85.70;;;;;;7397353;19;20348;-73
2023/07/13 07:57:57;;;;;;;13.68;7.43;;;28.20;85.50;;;;;;7378247;19;20694;-74
2023/07/13 08:00:22;;;;;;;14.75;6.93;;;27.90;85.70;;;;;;7397937;19;19945;-73
2023/07/13 08:02:48;;;;;;;14.95;6.65;;;27.90;86.20;;;;;;7385266;19;20199;-74
2023/07/13 08:05:14;;;;;;;16.13;6.35;;;27.60;87.30;;;;;;7386143;19;19922;-73
2023/07/13 08:07:40;;;;;;;15.63;6.47;;;27.30;87.70;;;;;;7399795;19;19907;-73
2023/07/13 08:10:07;;;;;;;13.50;6.82;;;27.30;88.10;;;;;;7363087;19;19949;-74
2023/07/13 08:12:37;;;;;;;15.02;6.78;;;27.40;87.70;;;;;;7398242;19;20362;-73
2023/07/13 08:15:08;;;;;;;14.88;6.55;;;27.50;87.80;;;;;;7398423;19;19978;-74
2023/07/13 08:17:35;;;;;;;18.77;8.88;;;27.90;87.10;;;;;;7387627;19;20622;-75
2023/07/13 08:20:02;;;;;;;14.20;7.35;;;28.10;85.50;;;;;;7398247;19;19918;-75
2023/07/13 08:22:28;;;;;;;16.75;7.03;;;28.10;85.50;;;;;;7404206;19;20375;-73
2023/07/13 08:24:56;;;;;;;12.75;6.70;;;28.00;86.10;;;;;;7400363;19;20049;-74
2023/07/13 08:27:24;;;;;;;15.32;7.13;;;28.00;86.10;;;;;;7397610;19;19931;-73
2023/07/13 08:29:50;;;;;;;14.73;6.95;;;28.00;86.00;;;;;;7393968;19;19923;-73
2023/07/13 08:32:17;;;;;;;11.30;6.55;;;27.90;85.20;;;;;;7396098;19;19928;-73
2023/07/13 08:34:43;;;;;;;15.50;6.38;;;27.90;85.90;;;;;;7402377;19;19947;-73
2023/07/13 08:37:10;;;;;;;17.00;7.07;;;27.60;86.50;;;;;;7400609;19;19914;-74
2023/07/13 08:39:36;;;;;;;16.15;6.97;;;27.70;86.30;;;;;;7388489;19;19929;-74
2023/07/13 08:42:09;;;;;;;15.38;8.18;;;28.00;86.10;;;;;;7386237;19;19935;-74
2023/07/13 08:44:57;;;;;;;16.30;7.40;;;28.10;85.50;;;;;;7383555;19;19939;-74
2023/07/13 08:47:24;;;;;;;17.48;7.78;;;28.40;84.70;;;;;;7394104;19;19937;-74
2023/07/13 08:49:53;;;;;;;16.10;7.65;;;28.30;85.10;;;;;;7381408;19;19922;-74
2023/07/13 08:52:39;;;;;;;17.65;7.78;;;28.30;84.50;;;;;;7392779;19;20352;-74
2023/07/13 08:55:18;;;;;;;13.35;7.15;;;28.10;85.20;;;;;;7391042;19;19947;-73
2023/07/13 08:57:48;;;;;;;18.73;7.63;;;28.10;86.60;;;;;;7396367;19;19925;-73
2023/07/13 09:00:15;;;;;;;16.90;7.25;;;28.20;86.30;;;;;;7343884;19;19926;-74
2023/07/13 09:02:57;;;;;;;19.15;7.43;;;28.40;85.90;;;;;;7397366;19;20266;-73
2023/07/13 09:05:52;;;;;;;16.27;6.97;;;28.50;86.20;;;;;;7399032;19;19931;-73
2023/07/13 09:08:48;;;;;;;15.32;6.93;;;28.50;86.80;;;;;;7393156;19;19936;-73
2023/07/13 09:11:32;;;;;;;17.60;6.20;;;28.70;86.70;;;;;;7393307;19;19921;-73
2023/07/13 09:13:58;;;;;;;;;;;28.60;85.80;;;;;;7399815;19;19925;-75
2023/07/13 09:16:24;;;;;;;13.52;5.93;;;28.50;87.50;;;;;;7398942;19;20340;-73
2023/07/13 09:18:54;;;;;;;14.10;6.60;;;28.60;86.70;;;;;;7391219;19;19914;-74
2023/07/13 09:21:33;;;;;;;14.10;5.82;;;28.50;87.20;;;;;;7395065;19;20066;-74
2023/07/13 09:24:24;;;;;;;16.20;6.20;;;28.10;87.80;;;;;;7391522;19;20398;-74
2023/07/13 09:26:51;;;;;;;16.40;6.30;;;28.50;86.20;;;;;;7398024;19;19929;-74
2023/07/13 09:29:27;;;;;;;14.93;5.38;;;28.30;86.60;;;;;;7396037;19;19948;-73
2023/07/13 09:31:58;;;;;;;16.42;6.32;;;28.50;86.40;;;;;;7398517;19;19922;-74
2023/07/13 09:34:25;;;;;;;20.55;7.45;;;28.30;86.70;;;;;;7400619;19;19925;-74
2023/07/13 09:36:51;;;;;;;14.88;6.40;;;28.50;87.00;;;;;;7402156;19;19926;-73
2023/07/13 09:39:31;;;;;;;17.83;6.25;;;28.20;87.30;;;;;;7401775;19;19922;-74
2023/07/13 09:42:19;;;;;;;14.05;5.78;;;28.60;86.60;;;;;;7378210;19;19921;-73
2023/07/13 09:44:48;;;;;;;15.82;6.32;;;28.70;85.40;;;;;;7398968;19;19938;-74
2023/07/13 09:47:20;;;;;;;13.23;6.20;;;28.80;84.90;;;;;;7398842;19;19929;-74
2023/07/13 09:49:54;;;;;;;12.52;5.63;;;28.60;84.20;;;;;;7398657;19;19922;-73
2023/07/13 09:52:19;;;;;;;15.80;6.28;;;28.40;85.40;;;;;;7400484;19;20342;-73
2023/07/13 09:54:49;;;;;;;11.98;5.85;;;28.60;84.50;;;;;;7400288;19;19919;-74
2023/07/13 09:57:22;;;;;;;12.15;5.18;;;28.80;83.40;;;;;;7400280;19;19978;-74
2023/07/13 09:59:51;;;;;;;16.75;5.32;;;28.80;83.50;;;;;;7389862;19;19914;-74
2023/07/13 10:02:33;;;;;;;13.93;5.88;;;29.00;82.80;;;;;;7382971;19;19935;-74
2023/07/13 10:05:11;;;;;;;14.27;4.90;;;28.90;82.20;;;;;;7399978;19;19925;-74
2023/07/13 10:07:47;;;;;;;9.27;4.93;;;28.70;81.50;;;;;;7396856;19;19922;-72
2023/07/13 10:10:22;;;;;;;11.27;5.63;;;28.70;81.60;;;;;;7389177;19;19907;-74
2023/07/13 10:12:49;;;;;;;14.23;4.90;;;28.50;82.90;;;;;;7394552;19;19923;-74
2023/07/13 10:15:18;;;;;;;15.52;6.00;;;28.60;82.30;;;;;;7390569;19;19943;-74
2023/07/13 10:17:45;;;;;;;14.57;5.30;;;28.70;81.00;;;;;;7400652;19;20838;-73
2023/07/13 10:20:12;;;;;;;18.30;5.93;;;28.60;81.00;;;;;;7396719;19;20263;-74
2023/07/13 10:22:56;;;;;;;11.48;5.18;;;28.70;80.20;;;;;;7398097;19;19914;-73
2023/07/13 10:25:27;;;;;;;8.70;3.53;;;28.60;79.10;;;;;;7393269;19;20426;-73
2023/07/13 10:27:58;;;;;;;14.25;4.65;;;28.50;78.60;;;;;;7392382;19;19935;-73
2023/07/13 10:30:29;;;;;;;11.18;4.47;;;28.50;79.10;;;;;;7384175;19;19914;-74
2023/07/13 10:33:00;;;;;;;11.15;4.32;;;28.70;77.70;;;;;;7387318;19;19918;-74
2023/07/13 10:35:28;;;;;;;13.70;4.50;;;28.90;76.60;;;;;;7397302;19;20238;-73
2023/07/13 10:38:11;;;;;;;12.40;4.90;;;28.60;77.40;;;;;;7393945;19;20277;-73
2023/07/13 10:40:57;;;;;;;13.93;5.47;;;29.20;76.00;;;;;;7396107;19;19959;-74
2023/07/13 10:43:32;;;;;;;12.82;4.63;;;29.60;74.90;;;;;;7387502;19;19944;-73
2023/07/13 10:46:00;;;;;;;11.48;4.07;;;29.60;74.50;;;;;;7389256;19;19918;-73
2023/07/13 10:48:27;;;;;;;12.07;4.28;;;29.10;73.40;;;;;;7400147;19;19942;-74
2023/07/13 10:50:55;;;;;;;14.18;4.13;;;29.40;73.60;;;;;;7390670;19;20268;-73
2023/07/13 10:53:36;;;;;;;12.07;4.20;;;29.30;72.70;;;;;;7397650;19;19922;-73
2023/07/13 10:56:19;;;;;;;8.80;4.05;;;29.30;71.60;;;;;;7394235;19;19935;-72
2023/07/13 10:58:46;;;;;;;10.77;3.60;;;29.50;70.60;;;;;;7395879;19;19922;-74
2023/07/13 11:01:17;;;;;;;9.32;3.70;;;29.60;68.70;;;;;;7396170;19;20241;-73
2023/07/13 11:03:50;;;;;;;10.10;3.90;;;29.20;69.20;;;;;;7392934;19;19974;-73
2023/07/13 11:06:22;;;;;;;10.35;4.05;;;29.50;68.10;;;;;;7363106;19;20426;-74
2023/07/13 11:08:48;;;;;;;8.48;4.18;;;29.80;67.40;;;;;;7401294;19;19918;-74
2023/07/13 11:11:29;;;;;;;12.73;3.75;;;30.40;65.90;;;;;;7396188;19;19953;-72
2023/07/13 11:14:00;;;;;;;12.85;4.10;;;30.30;64.60;;;;;;7393939;19;19918;-73
2023/07/13 11:16:46;;;;;;;8.10;4.05;;;30.20;62.60;;;;;;7389580;19;19930;-74
2023/07/13 11:19:15;;;;;;;10.48;4.05;;;30.30;61.50;;;;;;7392810;19;19923;-73
2023/07/13 11:22:01;;;;;;;14.23;4.07;;;30.10;61.80;;;;;;7392306;19;19918;-73
2023/07/13 11:24:47;;;;;;;8.18;3.58;;;30.10;61.80;;;;;;7391979;19;19922;-73
2023/07/13 11:27:24;;;;;;;10.57;4.03;;;29.90;61.50;;;;;;7389839;19;19929;-73
2023/07/13 11:29:50;;;;;;;10.98;2.83;;;30.00;60.40;;;;;;7396944;19;19918;-73
2023/07/13 11:32:31;;;;;;;10.30;3.85;;;29.70;59.90;;;;;;7400741;19;19951;-73
2023/07/13 11:34:57;;;;;;;6.45;3.13;;;29.80;59.40;;;;;;7399172;19;20341;-73
2023/07/13 11:37:24;;;;;;;7.05;3.55;;;30.50;58.60;;;;;;7377125;19;19934;-73
2023/07/13 11:39:52;;;;;;;8.95;4.25;;;30.90;57.80;;;;;;7381529;19;19923;-73
2023/07/13 11:42:20;;;;;;;10.15;3.42;;;30.10;56.50;;;;;;7380821;19;19928;-73
2023/07/13 11:44:48;;;;;;;6.50;3.03;;;30.10;56.90;;;;;;7396420;19;19918;-74
2023/07/13 11:47:20;;;;;;;9.38;2.88;;;29.90;56.60;;;;;;7395535;19;19965;-73
2023/07/13 11:49:48;;;;;;;;;;;30.30;56.50;;;;;;7406914;19;19943;-74
2023/07/13 11:52:17;;;;;;;7.60;2.80;;;30.30;56.20;;;;;;7393527;19;19914;-73
2023/07/13 11:54:53;;;;;;;6.68;2.53;;;30.70;54.60;;;;;;7403707;19;19922;-72
2023/07/13 11:57:34;;;;;;;10.45;3.10;;;30.40;54.70;;;;;;7392722;19;19934;-71
2023/07/13 12:00:11;;;;;;;5.55;2.72;;;30.10;55.10;;;;;;7397881;19;19936;-73
2023/07/13 12:02:41;;;;;;;11.30;3.45;;;29.90;55.70;;;;;;7398392;19;19915;-73
2023/07/13 12:05:12;;;;;;;8.05;3.03;;;30.40;56.60;;;;;;7396579;19;20503;-73
2023/07/13 12:07:38;;;;;;;7.25;2.63;;;31.00;55.40;;;;;;7398009;19;19914;-72
2023/07/13 12:10:16;;;;;;;8.40;3.85;;;29.80;57.50;;;;;;7404111;19;20374;-73
2023/07/13 12:13:07;;;;;;;7.53;2.65;;;30.70;56.80;;;;;;7352925;19;19935;-73
2023/07/13 12:15:48;;;;;;;6.22;3.03;;;31.20;55.10;;;;;;7403684;19;19998;-72
2023/07/13 12:18:18;;;;;;;6.00;2.70;;;30.60;56.20;;;;;;7399140;19;19929;-72
2023/07/13 12:20:46;;;;;;;6.78;2.70;;;30.70;55.20;;;;;;7404547;19;19943;-72
2023/07/13 12:23:30;;;;;;;6.32;3.28;;;30.00;55.20;;;;;;7369476;19;20793;-74
2023/07/13 12:25:57;;;;;;;5.55;2.40;;;30.10;55.10;;;;;;7404374;19;20297;-73
2023/07/13 12:28:35;;;;;;;6.03;3.08;;;30.70;54.60;;;;;;7400076;19;19934;-75
2023/07/13 12:31:07;;;;;;;6.57;2.90;;;31.30;54.00;;;;;;7403812;19;19950;-74
2023/07/13 12:33:34;;;;;;;5.53;3.25;;;31.30;53.40;;;;;;7401527;19;19915;-76
2023/07/13 12:36:06;;;;;;;5.65;2.47;;;31.80;52.40;;;;;;7405982;19;19957;-76
2023/07/13 12:38:32;;;;;;;4.80;2.20;;;31.70;52.70;;;;;;7401107;19;19915;-75
2023/07/13 12:41:01;;;;;;;6.85;2.53;;;31.30;52.00;;;;;;7400753;19;19918;-77
2023/07/13 12:43:29;;;;;;;4.28;2.50;;;31.10;51.10;;;;;;7400911;19;19940;-75
2023/07/13 12:46:05;;;;;;;4.72;3.08;;;31.00;51.50;;;;;;7402226;19;19915;-74
2023/07/13 12:48:39;;;;;;;6.93;3.08;;;31.80;51.10;;;;;;7401516;19;19910;-75